createdAt,value
2022-09-20T00:01:22.766Z,15.80
2022-09-20T00:03:57.320Z,15.70
2022-09-20T00:06:26.639Z,15.60
2022-09-20T00:08:53.811Z,15.60
2022-09-20T00:11:22.818Z,15.40
2022-09-20T00:13:50.991Z,15.30
2022-09-20T00:16:20.212Z,15.20
2022-09-20T00:18:51.171Z,15.20
2022-09-20T00:21:19.809Z,15.10
2022-09-20T00:23:46.872Z,15.00
2022-09-20T00:26:14.017Z,14.90
2022-09-20T00:28:41.616Z,14.80
2022-09-20T00:31:08.767Z,14.80
2022-09-20T00:33:53.909Z,14.70
2022-09-20T00:36:20.789Z,14.70
2022-09-20T00:38:48.002Z,14.80
2022-09-20T00:41:15.039Z,14.90
2022-09-20T00:43:43.685Z,15.00
2022-09-20T00:46:25.950Z,14.90
2022-09-20T00:48:55.219Z,14.90
2022-09-20T00:51:31.889Z,14.90
2022-09-20T00:54:00.043Z,14.80
2022-09-20T00:56:29.780Z,14.60
2022-09-20T00:59:16.222Z,14.40
2022-09-20T01:01:44.504Z,14.30
2022-09-20T01:04:11.944Z,14.30
2022-09-20T01:06:38.984Z,14.30
2022-09-20T01:09:07.326Z,14.20
2022-09-20T01:11:34.808Z,14.10
2022-09-20T01:14:01.852Z,14.00
2022-09-20T01:16:29.128Z,14.10
2022-09-20T01:18:57.458Z,14.00
2022-09-20T01:21:24.393Z,13.90
2022-09-20T01:24:33.685Z,14.00
2022-09-20T01:27:31.674Z,14.10
2022-09-20T01:30:04.071Z,14.20
2022-09-20T01:32:55.491Z,14.20
2022-09-20T01:35:22.774Z,14.10
2022-09-20T01:38:08.081Z,13.80
2022-09-20T01:41:09.723Z,13.50
2022-09-20T01:44:04.470Z,13.30
2022-09-20T01:46:33.202Z,13.30
2022-09-20T01:49:03.227Z,13.10
2022-09-20T01:51:41.969Z,13.00
2022-09-20T01:54:17.778Z,13.00
2022-09-20T01:57:17.775Z,13.00
2022-09-20T01:59:44.827Z,13.00
2022-09-20T02:02:43.973Z,12.90
2022-09-20T02:05:51.386Z,12.80
2022-09-20T02:08:44.117Z,12.80
2022-09-20T02:11:23.673Z,12.80
2022-09-20T02:14:06.377Z,12.90
2022-09-20T02:17:00.943Z,13.00
2022-09-20T02:19:37.909Z,12.90
2022-09-20T02:22:31.126Z,12.80
2022-09-20T02:25:03.464Z,12.60
2022-09-20T02:27:53.886Z,12.50
2022-09-20T02:30:23.602Z,12.50
2022-09-20T02:33:41.711Z,12.50
2022-09-20T02:36:14.637Z,12.60
2022-09-20T02:39:00.061Z,12.70
2022-09-20T02:41:52.749Z,12.80
2022-09-20T02:44:54.919Z,12.60
2022-09-20T02:47:37.564Z,12.60
2022-09-20T02:50:38.539Z,12.60
2022-09-20T02:53:08.708Z,12.60
2022-09-20T02:55:43.588Z,12.60
2022-09-20T02:58:19.348Z,12.70
2022-09-20T03:01:17.638Z,12.70
2022-09-20T03:04:03.039Z,12.70
2022-09-20T03:06:59.970Z,12.80
2022-09-20T03:09:43.140Z,12.70
2022-09-20T03:12:47.251Z,12.80
2022-09-20T03:15:19.800Z,12.70
2022-09-20T03:18:11.704Z,12.80
2022-09-20T03:20:57.484Z,12.90
2022-09-20T03:24:05.949Z,12.90
2022-09-20T03:27:10.277Z,13.00
2022-09-20T03:29:56.240Z,13.20
2022-09-20T03:32:33.885Z,13.30
2022-09-20T03:35:39.185Z,13.40
2022-09-20T03:38:08.967Z,13.40
2022-09-20T03:40:56.676Z,13.50
2022-09-20T03:43:30.522Z,13.40
2022-09-20T03:46:16.227Z,13.40
2022-09-20T03:49:04.677Z,13.40
2022-09-20T03:51:56.237Z,13.30
2022-09-20T03:55:02.750Z,13.20
2022-09-20T03:57:54.511Z,13.20
2022-09-20T04:00:33.988Z,13.10
2022-09-20T04:03:03.278Z,13.10
2022-09-20T04:05:37.006Z,13.00
2022-09-20T04:08:39.949Z,13.00
2022-09-20T04:11:31.473Z,12.90
2022-09-20T04:14:11.535Z,12.80
2022-09-20T04:17:03.513Z,12.60
2022-09-20T04:19:35.362Z,12.50
2022-09-20T04:22:03.192Z,12.30
2022-09-20T04:24:30.103Z,12.30
2022-09-20T04:27:24.526Z,12.20
2022-09-20T04:30:05.512Z,12.10
2022-09-20T04:32:52.470Z,12.20
2022-09-20T04:35:50.108Z,12.10
2022-09-20T04:38:18.708Z,11.90
2022-09-20T04:41:00.673Z,11.90
2022-09-20T04:43:58.056Z,11.80
2022-09-20T04:47:02.237Z,11.70
2022-09-20T04:49:50.405Z,11.70
2022-09-20T04:52:53.676Z,11.60
2022-09-20T04:55:35.572Z,11.60
2022-09-20T04:58:08.400Z,11.50
2022-09-20T05:01:17.128Z,11.40
2022-09-20T05:04:05.310Z,11.40
2022-09-20T05:07:01.661Z,11.30
2022-09-20T05:09:53.027Z,11.30
2022-09-20T05:12:36.373Z,11.20
2022-09-20T05:15:23.926Z,11.20
2022-09-20T05:18:07.262Z,11.20
2022-09-20T05:20:40.433Z,11.20
2022-09-20T05:23:16.746Z,11.10
2022-09-20T05:26:17.988Z,11.00
2022-09-20T05:29:01.860Z,11.00
2022-09-20T05:31:45.074Z,11.10
2022-09-20T05:34:33.196Z,11.00
2022-09-20T05:37:06.265Z,11.00
2022-09-20T05:40:13.283Z,10.90
2022-09-20T05:42:44.286Z,10.80
2022-09-20T05:45:33.442Z,10.80
2022-09-20T05:48:10.448Z,10.80
2022-09-20T05:51:13.656Z,10.80
2022-09-20T05:53:46.534Z,10.90
2022-09-20T05:56:33.350Z,10.70
2022-09-20T05:59:22.690Z,10.70
2022-09-20T06:02:16.714Z,10.70
2022-09-20T06:05:16.933Z,10.90
2022-09-20T06:08:00.777Z,10.80
2022-09-20T06:10:55.657Z,10.70
2022-09-20T06:13:41.660Z,10.80
2022-09-20T06:16:12.337Z,10.90
2022-09-20T06:18:53.737Z,10.90
2022-09-20T06:21:46.780Z,11.20
2022-09-20T06:25:04.337Z,11.70
2022-09-20T06:27:41.155Z,11.90
2022-09-20T06:30:15.165Z,12.00
2022-09-20T06:33:07.236Z,11.90
2022-09-20T06:35:36.620Z,12.20
2022-09-20T06:38:43.781Z,12.30
2022-09-20T06:41:29.863Z,12.40
2022-09-20T06:43:59.164Z,12.40
2022-09-20T06:46:31.565Z,12.40
2022-09-20T06:48:58.702Z,12.50
2022-09-20T06:51:26.964Z,12.50
2022-09-20T06:53:55.021Z,12.70
2022-09-20T06:56:29.814Z,12.70
2022-09-20T06:58:56.810Z,12.90
2022-09-20T07:01:30.236Z,13.10
2022-09-20T07:03:58.948Z,13.30
2022-09-20T07:06:26.827Z,13.50
2022-09-20T07:08:53.867Z,13.80
2022-09-20T07:11:21.342Z,14.10
2022-09-20T07:13:50.830Z,14.50
2022-09-20T07:16:17.767Z,14.80
2022-09-20T07:18:44.909Z,15.00
2022-09-20T07:21:12.665Z,15.20
2022-09-20T07:23:39.630Z,15.40
2022-09-20T07:26:07.180Z,15.70
2022-09-20T07:28:34.795Z,15.90
2022-09-20T07:31:01.894Z,16.20
2022-09-20T07:33:28.958Z,16.50
2022-09-20T07:35:56.007Z,17.00
2022-09-20T07:38:23.136Z,17.30
2022-09-20T07:40:57.752Z,17.80
2022-09-20T07:43:25.363Z,17.80
2022-09-20T07:45:56.109Z,17.80
2022-09-20T07:48:25.546Z,17.90
2022-09-20T07:51:04.748Z,18.30
2022-09-20T07:53:35.199Z,18.60
2022-09-20T07:56:04.206Z,19.00
2022-09-20T07:58:31.979Z,19.30
2022-09-20T08:01:00.179Z,19.40
2022-09-20T08:03:27.327Z,19.10
2022-09-20T08:06:00.145Z,19.00
2022-09-20T08:08:27.148Z,18.70
2022-09-20T08:10:56.061Z,18.50
2022-09-20T08:16:11.020Z,18.90
2022-09-20T08:18:38.045Z,19.40
2022-09-20T08:21:06.692Z,19.90
2022-09-20T08:23:41.291Z,19.80
2022-09-20T08:26:09.889Z,19.90
2022-09-20T08:28:36.888Z,19.90
2022-09-20T08:31:09.060Z,19.80
2022-09-20T08:33:39.293Z,19.60
2022-09-20T08:36:07.004Z,19.40
2022-09-20T08:41:28.520Z,19.60
2022-09-20T08:44:00.554Z,19.70
2022-09-20T08:46:35.944Z,19.80
2022-09-20T08:49:11.025Z,19.80
2022-09-20T08:51:39.115Z,19.90
2022-09-20T08:54:14.463Z,19.70
2022-09-20T08:56:41.340Z,19.60
2022-09-20T08:59:11.673Z,20.30
2022-09-20T09:01:38.764Z,20.60
2022-09-20T09:04:13.274Z,20.70
2022-09-20T09:06:40.443Z,21.00
2022-09-20T09:09:07.502Z,21.10
2022-09-20T09:11:34.821Z,20.80
2022-09-20T09:14:25.426Z,20.90
2022-09-20T09:16:52.450Z,21.20
2022-09-20T09:19:33.358Z,21.10
2022-09-20T09:22:01.648Z,21.00
2022-09-20T09:24:28.598Z,21.10
2022-09-20T09:27:19.328Z,21.10
2022-09-20T09:29:51.028Z,20.90
2022-09-20T09:32:28.568Z,20.80
2022-09-20T09:34:56.155Z,20.50
2022-09-20T09:37:28.681Z,20.30
2022-09-20T09:40:19.005Z,20.60
2022-09-20T09:42:57.184Z,20.70
2022-09-20T09:45:39.044Z,20.80
2022-09-20T09:48:27.623Z,20.90
2022-09-20T09:51:11.589Z,20.80
2022-09-20T09:53:39.137Z,21.00
2022-09-20T09:56:30.102Z,21.20
2022-09-20T09:59:10.687Z,21.30
2022-09-20T10:01:40.436Z,21.20
2022-09-20T10:04:21.621Z,21.30
2022-09-20T10:07:00.847Z,21.00
2022-09-20T10:09:53.010Z,20.70
2022-09-20T10:12:30.310Z,20.50
2022-09-20T10:15:14.410Z,20.40
2022-09-20T10:18:22.290Z,20.50
2022-09-20T10:21:25.135Z,20.50
2022-09-20T10:24:04.059Z,20.50
2022-09-20T10:26:40.377Z,20.70
2022-09-20T10:29:08.447Z,20.90
2022-09-20T10:32:18.203Z,21.10
2022-09-20T10:35:03.778Z,21.20
2022-09-20T10:37:33.648Z,21.00
2022-09-20T10:40:16.302Z,21.10
2022-09-20T10:43:08.609Z,21.10
2022-09-20T10:48:42.759Z,20.40
2022-09-20T10:51:28.404Z,20.40
2022-09-20T10:54:08.871Z,20.20
2022-09-20T10:56:43.727Z,20.20
2022-09-20T10:59:20.685Z,20.20
2022-09-20T11:02:30.223Z,20.50
2022-09-20T11:05:16.682Z,20.90
2022-09-20T11:08:03.402Z,20.80
2022-09-20T11:10:36.214Z,20.80
2022-09-20T11:13:07.849Z,20.90
2022-09-20T11:16:10.125Z,21.00
2022-09-20T11:18:54.126Z,20.90
2022-09-20T11:21:31.731Z,20.80
2022-09-20T11:24:18.228Z,20.70
2022-09-20T11:26:52.302Z,20.70
2022-09-20T11:29:35.891Z,20.80
2022-09-20T11:32:10.877Z,21.00
2022-09-20T11:35:08.773Z,20.90
2022-09-20T11:37:38.612Z,21.00
2022-09-20T11:40:29.513Z,21.00
2022-09-20T11:42:57.569Z,21.00
2022-09-20T11:45:28.305Z,21.00
2022-09-20T11:48:11.770Z,21.20
2022-09-20T11:50:45.328Z,21.40
2022-09-20T11:53:37.242Z,21.40
2022-09-20T11:56:08.023Z,21.40
2022-09-20T11:58:52.018Z,21.20
2022-09-20T12:01:48.329Z,21.20
2022-09-20T12:04:32.503Z,21.10
2022-09-20T12:07:17.848Z,21.20
2022-09-20T12:10:01.941Z,21.30
2022-09-20T12:12:39.318Z,21.30
2022-09-20T12:15:28.163Z,21.40
2022-09-20T12:17:58.812Z,21.40
2022-09-20T12:20:35.103Z,21.40
2022-09-20T12:23:45.348Z,21.40
2022-09-20T12:26:21.782Z,21.50
2022-09-20T12:28:52.615Z,21.60
2022-09-20T12:31:22.603Z,21.70
2022-09-20T12:34:16.036Z,21.70
2022-09-20T12:37:10.323Z,21.70
2022-09-20T12:39:38.322Z,21.40
2022-09-20T12:42:12.039Z,21.30
2022-09-20T12:44:41.204Z,21.50
2022-09-20T12:47:11.124Z,21.50
2022-09-20T12:49:56.824Z,21.60
2022-09-20T12:52:42.272Z,21.80
2022-09-20T12:55:11.357Z,21.90
2022-09-20T12:57:38.583Z,22.10
2022-09-20T13:00:06.978Z,21.90
2022-09-20T13:02:56.738Z,21.70
2022-09-20T13:05:32.241Z,21.60
2022-09-20T13:08:22.719Z,21.60
2022-09-20T13:11:19.253Z,21.40
2022-09-20T13:13:56.269Z,21.30
2022-09-20T13:16:39.531Z,21.30
2022-09-20T13:19:11.206Z,21.30
2022-09-20T13:21:40.453Z,21.30
2022-09-20T13:24:08.023Z,21.30
2022-09-20T13:26:40.124Z,21.30
2022-09-20T13:29:10.354Z,21.20
2022-09-20T13:31:37.614Z,21.20
2022-09-20T13:34:24.365Z,21.20
2022-09-20T13:36:56.523Z,21.10
2022-09-20T13:39:29.692Z,21.20
2022-09-20T13:42:12.333Z,21.20
2022-09-20T13:44:39.326Z,20.90
2022-09-20T13:47:29.444Z,20.60
2022-09-20T13:50:10.358Z,20.60
2022-09-20T13:52:47.299Z,20.50
2022-09-20T13:55:33.291Z,20.50
2022-09-20T13:58:06.225Z,20.80
2022-09-20T14:00:33.740Z,21.00
2022-09-20T14:03:00.787Z,20.90
2022-09-20T14:05:29.434Z,21.00
2022-09-20T14:07:56.816Z,21.30
2022-09-20T14:10:31.158Z,21.20
2022-09-20T14:12:59.767Z,21.40
2022-09-20T14:15:27.488Z,21.40
2022-09-20T14:17:55.487Z,21.10
2022-09-20T14:20:24.057Z,20.80
2022-09-20T14:22:51.009Z,20.70
2022-09-20T14:25:27.791Z,20.70
2022-09-20T14:28:16.516Z,20.50
2022-09-20T14:30:43.488Z,20.50
2022-09-20T14:33:15.374Z,20.60
2022-09-20T14:35:51.691Z,20.70
2022-09-20T14:38:22.441Z,20.50
2022-09-20T14:40:49.861Z,20.40
2022-09-20T14:43:37.122Z,20.40
2022-09-20T14:46:05.639Z,20.40
2022-09-20T14:48:42.918Z,20.40
2022-09-20T14:51:16.456Z,20.40
2022-09-20T14:53:44.280Z,20.30
2022-09-20T14:56:12.575Z,20.30
2022-09-20T14:59:06.655Z,20.40
2022-09-20T15:01:34.739Z,20.50
2022-09-20T15:04:09.730Z,20.60
2022-09-20T15:06:40.230Z,20.60
2022-09-20T15:09:07.345Z,20.70
2022-09-20T15:11:34.337Z,20.80
2022-09-20T15:14:01.365Z,20.90
2022-09-20T15:16:28.275Z,20.90
2022-09-20T15:18:55.280Z,20.60
2022-09-20T15:21:22.351Z,20.60
2022-09-20T15:23:49.243Z,20.60
2022-09-20T15:26:16.305Z,20.60
2022-09-20T15:28:43.198Z,20.60
2022-09-20T15:31:10.336Z,20.70
2022-09-20T15:33:37.333Z,20.70
2022-09-20T15:36:04.509Z,20.80
2022-09-20T15:38:31.450Z,20.80
2022-09-20T15:41:00.708Z,20.80
2022-09-20T15:43:28.198Z,20.90
2022-09-20T15:45:56.754Z,20.70
2022-09-20T15:48:25.581Z,20.60
2022-09-20T15:51:06.882Z,20.50
2022-09-20T15:53:35.523Z,20.40
2022-09-20T15:56:04.448Z,20.50
2022-09-20T15:58:36.738Z,20.30
2022-09-20T16:01:08.267Z,20.10
2022-09-20T16:03:35.511Z,20.10
2022-09-20T16:06:04.834Z,20.00
2022-09-20T16:08:36.369Z,20.00
2022-09-20T16:11:03.453Z,19.90
2022-09-20T16:13:30.449Z,19.80
2022-09-20T16:15:58.202Z,19.70
2022-09-20T16:18:44.245Z,19.70
2022-09-20T16:21:12.592Z,19.70
2022-09-20T16:23:40.515Z,19.50
2022-09-20T16:26:09.732Z,19.40
2022-09-20T16:28:37.058Z,19.30
2022-09-20T16:31:04.081Z,19.30
2022-09-20T16:33:33.123Z,19.30
2022-09-20T16:36:00.668Z,19.30
2022-09-20T16:38:28.528Z,19.30
2022-09-20T16:40:55.741Z,19.40
2022-09-20T16:43:26.258Z,19.40
2022-09-20T16:46:00.663Z,19.30
2022-09-20T16:48:31.621Z,19.30
2022-09-20T16:51:04.774Z,19.30
2022-09-20T16:53:32.799Z,19.30
2022-09-20T16:56:01.147Z,19.20
2022-09-20T16:58:29.518Z,19.20
2022-09-20T17:01:06.303Z,19.20
2022-09-20T17:03:34.312Z,19.10
2022-09-20T17:06:02.715Z,19.10
2022-09-20T17:08:29.838Z,19.20
2022-09-20T17:11:01.272Z,19.20
2022-09-20T17:13:33.043Z,19.20
2022-09-20T17:16:04.166Z,19.30
2022-09-20T17:18:31.182Z,19.30
2022-09-20T17:21:04.246Z,19.30
2022-09-20T17:23:33.944Z,19.30
2022-09-20T17:26:06.593Z,19.30
2022-09-20T17:28:37.981Z,19.30
2022-09-20T17:31:06.147Z,19.40
2022-09-20T17:33:33.906Z,19.40
2022-09-20T17:36:01.648Z,19.40
2022-09-20T17:38:30.999Z,19.30
2022-09-20T17:41:01.622Z,19.20
2022-09-20T17:43:29.998Z,19.20
2022-09-20T17:46:05.514Z,19.20
2022-09-20T17:48:34.340Z,19.20
2022-09-20T17:51:02.530Z,19.10
2022-09-20T17:53:33.659Z,19.00
2022-09-20T17:56:00.849Z,19.10
2022-09-20T17:58:27.943Z,19.10
2022-09-20T18:00:56.707Z,19.10
2022-09-20T18:03:24.304Z,18.90
2022-09-20T18:05:51.727Z,18.80
2022-09-20T18:08:19.152Z,18.70
2022-09-20T18:10:59.063Z,18.60
2022-09-20T18:13:27.795Z,18.60
2022-09-20T18:15:54.867Z,18.50
2022-09-20T18:18:21.995Z,18.40
2022-09-20T18:20:49.657Z,18.30
2022-09-20T18:23:16.780Z,18.30
2022-09-20T18:26:02.048Z,18.10
2022-09-20T18:28:29.065Z,18.10
2022-09-20T18:31:02.925Z,17.90
2022-09-20T18:33:30.988Z,17.70
2022-09-20T18:36:05.014Z,17.60
2022-09-20T18:38:33.200Z,17.50
2022-09-20T18:41:01.086Z,17.40
2022-09-20T18:43:30.085Z,17.30
2022-09-20T18:45:57.675Z,17.20
2022-09-20T18:48:25.776Z,17.20
2022-09-20T18:51:00.565Z,17.20
2022-09-20T18:53:35.515Z,17.00
2022-09-20T18:56:29.717Z,16.90
2022-09-20T18:59:03.930Z,16.90
2022-09-20T19:02:02.400Z,16.90
2022-09-20T19:05:08.391Z,16.80
2022-09-20T19:08:01.629Z,16.70
2022-09-20T19:10:51.691Z,16.70
2022-09-20T19:13:42.548Z,16.70
2022-09-20T19:16:25.319Z,16.60
2022-09-20T19:19:14.715Z,16.60
2022-09-20T19:21:56.932Z,16.60
2022-09-20T19:24:38.991Z,16.60
2022-09-20T19:27:06.467Z,16.60
2022-09-20T19:29:33.970Z,16.60
2022-09-20T19:32:01.365Z,16.70
2022-09-20T19:34:29.985Z,16.70
2022-09-20T19:37:18.886Z,16.70
2022-09-20T19:40:01.150Z,16.60
2022-09-20T19:42:36.332Z,16.50
2022-09-20T19:45:10.392Z,16.50
2022-09-20T19:48:05.331Z,16.50
2022-09-20T19:50:45.311Z,16.50
2022-09-20T19:53:16.988Z,16.50
2022-09-20T19:55:48.529Z,16.60
2022-09-20T19:58:15.758Z,16.50
2022-09-20T20:00:46.473Z,16.60
2022-09-20T20:03:14.055Z,16.50
2022-09-20T20:06:07.857Z,16.50
2022-09-20T20:08:43.138Z,16.50
2022-09-20T20:11:28.479Z,16.50
2022-09-20T20:14:09.201Z,16.60
2022-09-20T20:16:45.563Z,16.50
2022-09-20T20:19:30.181Z,16.50
2022-09-20T20:21:59.031Z,16.50
2022-09-20T20:24:34.283Z,16.40
2022-09-20T20:27:01.326Z,16.50
2022-09-20T20:29:28.337Z,16.50
2022-09-20T20:31:55.199Z,16.50
2022-09-20T20:34:22.887Z,16.50
2022-09-20T20:36:49.910Z,16.50
2022-09-20T20:39:17.537Z,16.50
2022-09-20T20:41:44.674Z,16.50
2022-09-20T20:44:12.478Z,16.60
2022-09-20T20:46:39.550Z,16.60
2022-09-20T20:49:06.479Z,16.50
2022-09-20T20:51:33.393Z,16.40
2022-09-20T20:54:00.390Z,16.40
2022-09-20T20:56:28.876Z,16.40
2022-09-20T20:59:00.708Z,16.40
2022-09-20T21:01:29.051Z,16.30
2022-09-20T21:03:56.325Z,16.30
2022-09-20T21:06:25.217Z,16.30
2022-09-20T21:08:52.310Z,16.40
2022-09-20T21:11:29.827Z,16.50
2022-09-20T21:13:57.945Z,16.60
2022-09-20T21:16:26.684Z,16.40
2022-09-20T21:18:53.840Z,16.30
2022-09-20T21:21:26.029Z,16.20
2022-09-20T21:23:54.882Z,16.20
2022-09-20T21:26:22.342Z,16.10
2022-09-20T21:28:54.014Z,16.10
2022-09-20T21:31:22.507Z,16.00
2022-09-20T21:33:49.749Z,16.00
2022-09-20T21:36:17.812Z,15.90
2022-09-20T21:38:45.301Z,15.90
2022-09-20T21:41:14.197Z,15.90
2022-09-20T21:43:43.133Z,15.80
2022-09-20T21:46:14.204Z,15.70
2022-09-20T21:48:41.465Z,15.70
2022-09-20T21:51:10.789Z,15.60
2022-09-20T21:53:38.554Z,15.60
2022-09-20T21:56:09.922Z,15.50
2022-09-20T21:58:40.189Z,15.40
2022-09-20T22:01:14.905Z,15.40
2022-09-20T22:03:49.377Z,15.30
2022-09-20T22:06:36.352Z,15.30
2022-09-20T22:09:09.783Z,15.40
2022-09-20T22:11:41.080Z,15.30
2022-09-20T22:14:08.774Z,15.30
2022-09-20T22:16:37.994Z,15.20
2022-09-20T22:19:05.382Z,15.30
2022-09-20T22:21:37.018Z,15.40
2022-09-20T22:24:08.150Z,15.60
2022-09-20T22:26:37.102Z,15.70
2022-09-20T22:29:04.474Z,15.60
2022-09-20T22:31:32.617Z,15.50
2022-09-20T22:34:04.107Z,15.50
2022-09-20T22:36:32.803Z,15.50
2022-09-20T22:38:59.721Z,15.50
2022-09-20T22:41:27.891Z,15.60
2022-09-20T22:43:55.124Z,15.60
2022-09-20T22:46:23.708Z,15.50
2022-09-20T22:48:50.820Z,15.50
2022-09-20T22:51:19.485Z,15.40
2022-09-20T22:53:46.938Z,15.30
2022-09-20T22:56:25.003Z,15.30
2022-09-20T22:58:53.477Z,15.30
2022-09-20T23:01:22.353Z,15.30
2022-09-20T23:03:57.418Z,15.50
2022-09-20T23:06:28.121Z,15.50
2022-09-20T23:08:57.256Z,15.40
2022-09-20T23:11:24.501Z,15.30
2022-09-20T23:14:16.029Z,15.30
2022-09-20T23:16:43.158Z,15.20
2022-09-20T23:19:10.474Z,15.20
2022-09-20T23:21:38.330Z,15.20
2022-09-20T23:24:06.937Z,15.30
2022-09-20T23:26:34.868Z,15.40
2022-09-20T23:29:12.509Z,15.60
2022-09-20T23:31:40.485Z,15.60
2022-09-20T23:34:08.217Z,15.40
2022-09-20T23:36:36.981Z,15.30
2022-09-20T23:39:04.482Z,15.30
2022-09-20T23:41:31.453Z,15.30
2022-09-20T23:43:58.514Z,15.30
2022-09-20T23:46:26.076Z,15.20
2022-09-20T23:48:53.237Z,15.20
2022-09-20T23:51:22.532Z,15.20
2022-09-20T23:53:50.237Z,15.20
2022-09-20T23:56:17.519Z,15.20
2022-09-20T23:58:45.146Z,15.20
